sensor_id;sensor_type;location;lat;lon;timestamp;pressure;altitude;pressure_sealevel;temperature;humidity
45078;BME280;60508;42.622;25.416;2022-12-20T00:00:58;98854.72;;;-0.33;60.12
45078;BME280;60508;42.622;25.416;2022-12-20T00:03:23;98855.34;;;-0.52;60.56
45078;BME280;60508;42.622;25.416;2022-12-20T00:05:49;98856.19;;;-0.52;60.66
45078;BME280;60508;42.622;25.416;2022-12-20T00:08:15;98858.47;;;-0.59;61.17
45078;BME280;60508;42.622;25.416;2022-12-20T00:10:43;98841.81;;;-0.70;61.30
45078;BME280;60508;42.622;25.416;2022-12-20T00:13:10;98860.63;;;-0.64;61.93
45078;BME280;60508;42.622;25.416;2022-12-20T00:15:36;98862.44;;;-0.64;61.52
45078;BME280;60508;42.622;25.416;2022-12-20T00:18:03;98850.91;;;-0.52;61.13
45078;BME280;60508;42.622;25.416;2022-12-20T00:20:29;98860.25;;;-0.37;60.91
45078;BME280;60508;42.622;25.416;2022-12-20T00:22:55;98859.91;;;-0.54;60.74
45078;BME280;60508;42.622;25.416;2022-12-20T00:25:21;98864.22;;;-0.53;61.45
45078;BME280;60508;42.622;25.416;2022-12-20T00:27:47;98853.44;;;-0.62;61.61
45078;BME280;60508;42.622;25.416;2022-12-20T00:30:14;98856.69;;;-0.58;62.01
45078;BME280;60508;42.622;25.416;2022-12-20T00:32:41;98853.19;;;-0.81;62.83
45078;BME280;60508;42.622;25.416;2022-12-20T00:35:07;98848.50;;;-0.89;63.43
45078;BME280;60508;42.622;25.416;2022-12-20T00:37:33;98852.72;;;-0.86;62.86
45078;BME280;60508;42.622;25.416;2022-12-20T00:39:59;98850.91;;;-0.75;62.93
45078;BME280;60508;42.622;25.416;2022-12-20T00:42:25;98845.63;;;-0.75;62.34
45078;BME280;60508;42.622;25.416;2022-12-20T00:44:51;98848.28;;;-0.86;62.38
45078;BME280;60508;42.622;25.416;2022-12-20T00:47:16;98846.72;;;-0.88;61.97
45078;BME280;60508;42.622;25.416;2022-12-20T00:49:42;98843.00;;;-0.75;62.03
45078;BME280;60508;42.622;25.416;2022-12-20T00:52:09;98842.03;;;-0.51;59.08
45078;BME280;60508;42.622;25.416;2022-12-20T00:54:34;98846.91;;;-0.35;56.83
45078;BME280;60508;42.622;25.416;2022-12-20T00:57:00;98841.38;;;-0.21;55.74
45078;BME280;60508;42.622;25.416;2022-12-20T00:59:26;98854.59;;;-0.32;55.36
45078;BME280;60508;42.622;25.416;2022-12-20T01:01:52;98835.28;;;-0.44;54.91
45078;BME280;60508;42.622;25.416;2022-12-20T01:04:19;98823.06;;;-0.56;55.23
45078;BME280;60508;42.622;25.416;2022-12-20T01:06:44;98831.34;;;-0.61;55.57
45078;BME280;60508;42.622;25.416;2022-12-20T01:09:11;98813.38;;;-0.89;56.34
45078;BME280;60508;42.622;25.416;2022-12-20T01:11:38;98824.53;;;-0.86;56.80
45078;BME280;60508;42.622;25.416;2022-12-20T01:14:15;98810.25;;;-0.83;56.58
45078;BME280;60508;42.622;25.416;2022-12-20T01:16:43;98806.03;;;-0.86;56.21
45078;BME280;60508;42.622;25.416;2022-12-20T01:19:11;98822.50;;;-0.82;56.36
45078;BME280;60508;42.622;25.416;2022-12-20T01:21:38;98819.75;;;-0.92;56.38
45078;BME280;60508;42.622;25.416;2022-12-20T01:24:19;98816.13;;;-0.80;56.58
45078;BME280;60508;42.622;25.416;2022-12-20T01:26:46;98804.25;;;-0.74;56.70
45078;BME280;60508;42.622;25.416;2022-12-20T01:29:12;98813.84;;;-0.73;57.60
45078;BME280;60508;42.622;25.416;2022-12-20T01:31:39;98805.78;;;-0.71;57.98
45078;BME280;60508;42.622;25.416;2022-12-20T01:34:05;98788.28;;;-0.72;58.06
45078;BME280;60508;42.622;25.416;2022-12-20T01:36:33;98790.91;;;-0.50;56.50
45078;BME280;60508;42.622;25.416;2022-12-20T01:39:02;98803.88;;;-0.58;57.20
45078;BME280;60508;42.622;25.416;2022-12-20T01:41:30;98788.78;;;-0.90;58.18
45078;BME280;60508;42.622;25.416;2022-12-20T01:44:03;98783.84;;;-0.83;59.13
45078;BME280;60508;42.622;25.416;2022-12-20T01:46:32;98781.31;;;-0.74;59.02
45078;BME280;60508;42.622;25.416;2022-12-20T01:49:13;98786.25;;;-0.69;58.69
45078;BME280;60508;42.622;25.416;2022-12-20T01:51:44;98777.63;;;-0.82;57.91
45078;BME280;60508;42.622;25.416;2022-12-20T01:54:17;98779.06;;;-1.01;58.60
45078;BME280;60508;42.622;25.416;2022-12-20T01:56:50;98770.69;;;-1.06;57.77
45078;BME280;60508;42.622;25.416;2022-12-20T01:59:17;98775.72;;;-1.03;56.30
45078;BME280;60508;42.622;25.416;2022-12-20T02:01:43;98774.03;;;-1.15;57.17
45078;BME280;60508;42.622;25.416;2022-12-20T02:04:10;98768.03;;;-1.06;57.12
45078;BME280;60508;42.622;25.416;2022-12-20T02:06:36;98771.16;;;-1.01;57.72
45078;BME280;60508;42.622;25.416;2022-12-20T02:09:03;98777.13;;;-0.99;58.67
45078;BME280;60508;42.622;25.416;2022-12-20T02:16:57;98762.41;;;-1.13;59.87
45078;BME280;60508;42.622;25.416;2022-12-20T02:22:25;98751.28;;;-1.27;57.95
45078;BME280;60508;42.622;25.416;2022-12-20T02:32:25;98734.47;;;-1.49;57.77
45078;BME280;60508;42.622;25.416;2022-12-20T02:34:53;98730.28;;;-1.52;58.12
45078;BME280;60508;42.622;25.416;2022-12-20T02:37:20;98744.53;;;-1.54;58.36
45078;BME280;60508;42.622;25.416;2022-12-20T02:39:46;98750.34;;;-1.85;59.62
45078;BME280;60508;42.622;25.416;2022-12-20T02:42:14;98744.84;;;-1.81;59.87
45078;BME280;60508;42.622;25.416;2022-12-20T02:44:49;98742.59;;;-1.63;58.93
45078;BME280;60508;42.622;25.416;2022-12-20T02:47:42;98752.44;;;-1.43;58.68
45078;BME280;60508;42.622;25.416;2022-12-20T02:50:11;98750.50;;;-1.63;57.61
45078;BME280;60508;42.622;25.416;2022-12-20T02:52:37;98748.19;;;-1.79;58.29
45078;BME280;60508;42.622;25.416;2022-12-20T02:55:04;98751.59;;;-1.66;57.69
45078;BME280;60508;42.622;25.416;2022-12-20T03:00:17;98741.53;;;-1.50;57.40
45078;BME280;60508;42.622;25.416;2022-12-20T03:02:45;98741.41;;;-1.48;60.20
45078;BME280;60508;42.622;25.416;2022-12-20T03:05:33;98752.31;;;-1.41;62.03
45078;BME280;60508;42.622;25.416;2022-12-20T03:07:59;98750.03;;;-1.57;62.11
45078;BME280;60508;42.622;25.416;2022-12-20T03:10:25;98753.44;;;-1.79;62.60
45078;BME280;60508;42.622;25.416;2022-12-20T03:12:51;98751.56;;;-1.77;62.92
45078;BME280;60508;42.622;25.416;2022-12-20T03:15:17;98757.66;;;-1.77;64.57
45078;BME280;60508;42.622;25.416;2022-12-20T03:17:45;98740.75;;;-1.97;66.53
45078;BME280;60508;42.622;25.416;2022-12-20T03:20:11;98715.72;;;-2.27;67.52
45078;BME280;60508;42.622;25.416;2022-12-20T03:22:37;98727.53;;;-2.44;66.25
45078;BME280;60508;42.622;25.416;2022-12-20T03:25:03;98725.44;;;-2.27;65.63
45078;BME280;60508;42.622;25.416;2022-12-20T03:27:30;98721.22;;;-2.30;66.47
45078;BME280;60508;42.622;25.416;2022-12-20T03:29:58;98719.56;;;-2.31;66.48
45078;BME280;60508;42.622;25.416;2022-12-20T03:32:24;98718.88;;;-2.10;65.88
45078;BME280;60508;42.622;25.416;2022-12-20T03:34:50;98725.66;;;-1.95;63.99
45078;BME280;60508;42.622;25.416;2022-12-20T03:37:21;98723.69;;;-2.04;62.70
45078;BME280;60508;42.622;25.416;2022-12-20T03:39:47;98715.56;;;-2.01;62.10
45078;BME280;60508;42.622;25.416;2022-12-20T03:42:12;98720.16;;;-1.80;60.63
45078;BME280;60508;42.622;25.416;2022-12-20T03:44:38;98734.78;;;-1.65;60.19
45078;BME280;60508;42.622;25.416;2022-12-20T03:47:04;98736.38;;;-1.62;60.81
45078;BME280;60508;42.622;25.416;2022-12-20T03:49:32;98736.31;;;-1.85;61.50
45078;BME280;60508;42.622;25.416;2022-12-20T03:51:58;98728.25;;;-2.06;63.40
45078;BME280;60508;42.622;25.416;2022-12-20T03:54:23;98734.84;;;-2.36;64.74
45078;BME280;60508;42.622;25.416;2022-12-20T03:57:09;98740.75;;;-2.32;64.90
45078;BME280;60508;42.622;25.416;2022-12-20T03:59:35;98736.94;;;-2.17;64.48
45078;BME280;60508;42.622;25.416;2022-12-20T04:02:03;98715.63;;;-2.25;64.91
45078;BME280;60508;42.622;25.416;2022-12-20T04:04:29;98731.72;;;-2.06;64.89
45078;BME280;60508;42.622;25.416;2022-12-20T04:06:55;98734.84;;;-2.00;65.25
45078;BME280;60508;42.622;25.416;2022-12-20T04:09:21;98728.00;;;-2.14;66.17
45078;BME280;60508;42.622;25.416;2022-12-20T04:11:52;98728.03;;;-2.03;65.68
45078;BME280;60508;42.622;25.416;2022-12-20T04:14:17;98733.41;;;-2.05;65.66
45078;BME280;60508;42.622;25.416;2022-12-20T04:16:43;98728.41;;;-1.85;64.48
45078;BME280;60508;42.622;25.416;2022-12-20T04:19:09;98729.25;;;-1.85;62.12
45078;BME280;60508;42.622;25.416;2022-12-20T04:21:40;98724.94;;;-1.97;62.66
45078;BME280;60508;42.622;25.416;2022-12-20T04:24:06;98720.84;;;-2.36;63.33
45078;BME280;60508;42.622;25.416;2022-12-20T04:27:01;98726.00;;;-2.59;64.30
45078;BME280;60508;42.622;25.416;2022-12-20T04:29:28;98724.31;;;-2.60;64.56
45078;BME280;60508;42.622;25.416;2022-12-20T04:31:53;98719.97;;;-2.48;64.37
45078;BME280;60508;42.622;25.416;2022-12-20T04:34:21;98723.84;;;-2.30;63.15
45078;BME280;60508;42.622;25.416;2022-12-20T04:36:46;98727.63;;;-2.21;63.86
45078;BME280;60508;42.622;25.416;2022-12-20T04:39:19;98723.06;;;-2.19;65.26
45078;BME280;60508;42.622;25.416;2022-12-20T04:42:11;98719.81;;;-2.23;64.60
45078;BME280;60508;42.622;25.416;2022-12-20T04:44:37;98724.97;;;-2.21;65.57
45078;BME280;60508;42.622;25.416;2022-12-20T04:47:03;98715.00;;;-2.29;66.35
45078;BME280;60508;42.622;25.416;2022-12-20T04:49:29;98694.59;;;-2.49;67.00
45078;BME280;60508;42.622;25.416;2022-12-20T04:51:55;98714.09;;;-2.52;67.25
45078;BME280;60508;42.622;25.416;2022-12-20T04:54:41;98705.66;;;-2.57;69.03
45078;BME280;60508;42.622;25.416;2022-12-20T04:57:14;98709.38;;;-2.60;70.08
45078;BME280;60508;42.622;25.416;2022-12-20T04:59:40;98718.06;;;-2.70;70.58
45078;BME280;60508;42.622;25.416;2022-12-20T05:02:06;98710.94;;;-2.81;71.60
45078;BME280;60508;42.622;25.416;2022-12-20T05:04:43;98715.25;;;-2.80;71.71
45078;BME280;60508;42.622;25.416;2022-12-20T05:07:09;98704.13;;;-2.84;72.00
45078;BME280;60508;42.622;25.416;2022-12-20T05:09:37;98708.28;;;-2.81;71.78
45078;BME280;60508;42.622;25.416;2022-12-20T05:12:04;98706.19;;;-2.76;72.25
45078;BME280;60508;42.622;25.416;2022-12-20T05:14:30;98710.38;;;-2.73;71.87
45078;BME280;60508;42.622;25.416;2022-12-20T05:16:55;98717.34;;;-2.72;71.26
45078;BME280;60508;42.622;25.416;2022-12-20T05:19:22;98714.16;;;-2.65;70.51
45078;BME280;60508;42.622;25.416;2022-12-20T05:21:47;98702.53;;;-2.62;69.66
45078;BME280;60508;42.622;25.416;2022-12-20T05:24:34;98704.34;;;-2.63;68.82
45078;BME280;60508;42.622;25.416;2022-12-20T05:27:38;98705.28;;;-2.64;68.49
45078;BME280;60508;42.622;25.416;2022-12-20T05:30:04;98703.63;;;-2.65;68.94
45078;BME280;60508;42.622;25.416;2022-12-20T05:32:30;98704.91;;;-2.70;69.29
45078;BME280;60508;42.622;25.416;2022-12-20T05:34:56;98701.53;;;-2.72;69.76
45078;BME280;60508;42.622;25.416;2022-12-20T05:37:22;98697.66;;;-2.80;69.82
45078;BME280;60508;42.622;25.416;2022-12-20T05:39:48;98699.06;;;-2.87;69.94
45078;BME280;60508;42.622;25.416;2022-12-20T05:42:19;98702.75;;;-2.89;70.18
45078;BME280;60508;42.622;25.416;2022-12-20T05:44:47;98710.22;;;-2.83;70.12
45078;BME280;60508;42.622;25.416;2022-12-20T05:47:13;98708.28;;;-2.81;70.19
45078;BME280;60508;42.622;25.416;2022-12-20T05:49:40;98705.56;;;-2.80;69.80
45078;BME280;60508;42.622;25.416;2022-12-20T05:52:08;98704.50;;;-2.77;70.40
45078;BME280;60508;42.622;25.416;2022-12-20T05:54:36;98705.00;;;-2.72;70.18
45078;BME280;60508;42.622;25.416;2022-12-20T05:57:06;98706.59;;;-2.69;70.23
45078;BME280;60508;42.622;25.416;2022-12-20T05:59:36;98702.25;;;-2.70;70.30
45078;BME280;60508;42.622;25.416;2022-12-20T06:02:04;98692.50;;;-2.81;70.37
45078;BME280;60508;42.622;25.416;2022-12-20T06:04:32;98695.69;;;-2.76;70.43
45078;BME280;60508;42.622;25.416;2022-12-20T06:07:02;98701.31;;;-2.69;70.46
45078;BME280;60508;42.622;25.416;2022-12-20T06:09:28;98684.84;;;-2.60;69.58
45078;BME280;60508;42.622;25.416;2022-12-20T06:12:17;98692.06;;;-2.51;70.11
45078;BME280;60508;42.622;25.416;2022-12-20T06:14:45;98683.00;;;-2.47;70.08
45078;BME280;60508;42.622;25.416;2022-12-20T06:17:12;98694.84;;;-2.41;69.72
45078;BME280;60508;42.622;25.416;2022-12-20T06:19:38;98685.91;;;-2.39;69.87
45078;BME280;60508;42.622;25.416;2022-12-20T06:22:08;98691.66;;;-2.33;68.48
45078;BME280;60508;42.622;25.416;2022-12-20T06:24:41;98696.84;;;-2.21;67.91
45078;BME280;60508;42.622;25.416;2022-12-20T06:27:08;98701.19;;;-2.08;67.06
45078;BME280;60508;42.622;25.416;2022-12-20T06:29:34;98704.44;;;-1.93;66.85
45078;BME280;60508;42.622;25.416;2022-12-20T06:32:07;98707.81;;;-1.80;65.82
45078;BME280;60508;42.622;25.416;2022-12-20T06:34:33;98712.03;;;-1.77;66.02
45078;BME280;60508;42.622;25.416;2022-12-20T06:36:59;98707.72;;;-1.67;65.61
45078;BME280;60508;42.622;25.416;2022-12-20T06:39:28;98698.13;;;-1.57;66.05
45078;BME280;60508;42.622;25.416;2022-12-20T06:42:13;98705.34;;;-1.48;65.37
45078;BME280;60508;42.622;25.416;2022-12-20T06:44:42;98696.84;;;-1.40;65.75
45078;BME280;60508;42.622;25.416;2022-12-20T06:47:07;98702.69;;;-1.25;65.59
45078;BME280;60508;42.622;25.416;2022-12-20T06:49:33;98694.66;;;-1.12;65.23
45078;BME280;60508;42.622;25.416;2022-12-20T06:52:01;98697.97;;;-0.99;64.45
45078;BME280;60508;42.622;25.416;2022-12-20T06:54:47;98695.44;;;-0.89;63.14
45078;BME280;60508;42.622;25.416;2022-12-20T06:57:13;98702.28;;;-0.86;63.74
45078;BME280;60508;42.622;25.416;2022-12-20T06:59:41;98703.22;;;-0.87;64.05
45078;BME280;60508;42.622;25.416;2022-12-20T07:02:09;98699.13;;;-0.69;64.26
45078;BME280;60508;42.622;25.416;2022-12-20T07:04:35;98701.72;;;-0.58;63.62
45078;BME280;60508;42.622;25.416;2022-12-20T07:07:02;98683.31;;;-0.48;63.49
45078;BME280;60508;42.622;25.416;2022-12-20T07:09:28;98684.97;;;-0.35;63.24
45078;BME280;60508;42.622;25.416;2022-12-20T07:11:55;98664.41;;;-0.32;63.07
45078;BME280;60508;42.622;25.416;2022-12-20T07:14:21;98673.75;;;-0.07;62.34
45078;BME280;60508;42.622;25.416;2022-12-20T07:16:47;98677.31;;;0.04;61.83
45078;BME280;60508;42.622;25.416;2022-12-20T07:19:13;98670.31;;;0.24;61.62
45078;BME280;60508;42.622;25.416;2022-12-20T07:21:40;98666.66;;;0.46;60.93
45078;BME280;60508;42.622;25.416;2022-12-20T07:24:07;98661.84;;;0.61;60.59
45078;BME280;60508;42.622;25.416;2022-12-20T07:26:33;98663.56;;;0.71;60.36
45078;BME280;60508;42.622;25.416;2022-12-20T07:29:00;98661.66;;;0.93;59.34
45078;BME280;60508;42.622;25.416;2022-12-20T07:31:26;98652.63;;;0.96;58.64
45078;BME280;60508;42.622;25.416;2022-12-20T07:33:52;98661.00;;;1.11;58.32
45078;BME280;60508;42.622;25.416;2022-12-20T07:36:18;98656.81;;;1.08;58.86
45078;BME280;60508;42.622;25.416;2022-12-20T07:38:44;98657.69;;;1.18;58.54
45078;BME280;60508;42.622;25.416;2022-12-20T07:41:13;98666.59;;;1.37;58.25
45078;BME280;60508;42.622;25.416;2022-12-20T07:43:40;98662.88;;;1.49;57.94
45078;BME280;60508;42.622;25.416;2022-12-20T07:46:06;98661.31;;;1.56;57.83
45078;BME280;60508;42.622;25.416;2022-12-20T07:48:33;98666.34;;;1.69;58.05
45078;BME280;60508;42.622;25.416;2022-12-20T07:51:04;98658.78;;;1.84;57.44
45078;BME280;60508;42.622;25.416;2022-12-20T07:53:33;98658.09;;;1.92;57.02
45078;BME280;60508;42.622;25.416;2022-12-20T07:56:00;98666.59;;;1.86;57.55
45078;BME280;60508;42.622;25.416;2022-12-20T07:58:27;98662.16;;;1.86;57.89
45078;BME280;60508;42.622;25.416;2022-12-20T08:00:55;98668.53;;;1.93;57.49
45078;BME280;60508;42.622;25.416;2022-12-20T08:03:25;98662.78;;;2.17;56.91
45078;BME280;60508;42.622;25.416;2022-12-20T08:05:55;98665.78;;;2.42;56.23
45078;BME280;60508;42.622;25.416;2022-12-20T08:08:22;98664.72;;;2.90;54.83
45078;BME280;60508;42.622;25.416;2022-12-20T08:10:49;98665.72;;;3.35;52.87
45078;BME280;60508;42.622;25.416;2022-12-20T08:13:16;98661.41;;;3.70;51.26
45078;BME280;60508;42.622;25.416;2022-12-20T08:15:42;98656.44;;;4.19;49.92
45078;BME280;60508;42.622;25.416;2022-12-20T08:18:08;98659.88;;;5.15;47.69
45078;BME280;60508;42.622;25.416;2022-12-20T08:20:33;98658.00;;;5.99;45.71
45078;BME280;60508;42.622;25.416;2022-12-20T08:23:02;98656.56;;;6.61;43.61
45078;BME280;60508;42.622;25.416;2022-12-20T08:25:28;98654.75;;;7.56;42.20
45078;BME280;60508;42.622;25.416;2022-12-20T08:27:54;98661.94;;;8.84;38.81
45078;BME280;60508;42.622;25.416;2022-12-20T08:30:20;98652.53;;;9.83;36.62
45078;BME280;60508;42.622;25.416;2022-12-20T08:32:46;98655.53;;;10.80;34.68
45078;BME280;60508;42.622;25.416;2022-12-20T08:35:12;98644.34;;;12.13;33.12
45078;BME280;60508;42.622;25.416;2022-12-20T08:37:38;98644.81;;;12.95;30.41
45078;BME280;60508;42.622;25.416;2022-12-20T08:40:04;98644.81;;;13.79;29.83
45078;BME280;60508;42.622;25.416;2022-12-20T08:42:30;98626.28;;;14.58;28.05
45078;BME280;60508;42.622;25.416;2022-12-20T08:44:56;98640.38;;;15.22;26.78
45078;BME280;60508;42.622;25.416;2022-12-20T08:47:21;98641.53;;;16.29;25.80
45078;BME280;60508;42.622;25.416;2022-12-20T08:49:47;98632.44;;;16.12;25.12
45078;BME280;60508;42.622;25.416;2022-12-20T08:52:13;98628.06;;;16.82;24.20
45078;BME280;60508;42.622;25.416;2022-12-20T08:54:39;98628.72;;;17.12;23.32
45078;BME280;60508;42.622;25.416;2022-12-20T08:57:04;98623.63;;;18.19;22.65
45078;BME280;60508;42.622;25.416;2022-12-20T08:59:30;98623.88;;;18.74;21.92
45078;BME280;60508;42.622;25.416;2022-12-20T09:01:56;98624.69;;;19.63;20.71
45078;BME280;60508;42.622;25.416;2022-12-20T09:04:22;98615.88;;;20.10;20.63
45078;BME280;60508;42.622;25.416;2022-12-20T09:06:47;98611.34;;;21.16;19.72
45078;BME280;60508;42.622;25.416;2022-12-20T09:09:13;98598.63;;;21.58;18.62
45078;BME280;60508;42.622;25.416;2022-12-20T09:11:39;98609.88;;;21.77;18.63
45078;BME280;60508;42.622;25.416;2022-12-20T09:14:05;98589.34;;;21.69;18.91
45078;BME280;60508;42.622;25.416;2022-12-20T09:16:32;98593.50;;;22.34;18.04
45078;BME280;60508;42.622;25.416;2022-12-20T09:19:00;98586.63;;;22.47;17.79
45078;BME280;60508;42.622;25.416;2022-12-20T09:21:26;98585.50;;;22.63;17.77
45078;BME280;60508;42.622;25.416;2022-12-20T09:23:54;98576.50;;;22.37;17.95
45078;BME280;60508;42.622;25.416;2022-12-20T09:26:21;98579.34;;;22.97;17.18
45078;BME280;60508;42.622;25.416;2022-12-20T09:28:48;98571.66;;;22.99;17.12
45078;BME280;60508;42.622;25.416;2022-12-20T09:31:17;98568.78;;;22.59;17.75
45078;BME280;60508;42.622;25.416;2022-12-20T09:33:44;98558.16;;;21.55;18.45
45078;BME280;60508;42.622;25.416;2022-12-20T09:36:15;98555.00;;;21.05;19.14
45078;BME280;60508;42.622;25.416;2022-12-20T09:38:42;98557.28;;;21.39;18.89
45078;BME280;60508;42.622;25.416;2022-12-20T09:41:51;98549.44;;;21.79;18.21
45078;BME280;60508;42.622;25.416;2022-12-20T09:44:17;98540.22;;;22.81;17.78
45078;BME280;60508;42.622;25.416;2022-12-20T09:46:46;98540.16;;;22.96;17.56
45078;BME280;60508;42.622;25.416;2022-12-20T09:49:16;98542.69;;;23.38;17.10
45078;BME280;60508;42.622;25.416;2022-12-20T10:00:15;98525.13;;;22.78;17.87
45078;BME280;60508;42.622;25.416;2022-12-20T10:02:41;98514.28;;;22.48;17.76
45078;BME280;60508;42.622;25.416;2022-12-20T10:05:24;98499.84;;;22.16;17.90
45078;BME280;60508;42.622;25.416;2022-12-20T10:10:56;98499.50;;;22.49;18.14
45078;BME280;60508;42.622;25.416;2022-12-20T10:18:55;98493.84;;;22.90;17.72
45078;BME280;60508;42.622;25.416;2022-12-20T10:21:35;98479.75;;;23.12;17.77
45078;BME280;60508;42.622;25.416;2022-12-20T10:24:17;98480.63;;;23.07;17.39
45078;BME280;60508;42.622;25.416;2022-12-20T10:26:43;98478.25;;;22.85;17.72
45078;BME280;60508;42.622;25.416;2022-12-20T10:29:09;98472.19;;;23.73;17.35
45078;BME280;60508;42.622;25.416;2022-12-20T10:31:35;98468.81;;;23.46;17.36
45078;BME280;60508;42.622;25.416;2022-12-20T10:34:04;98465.69;;;21.93;18.40
45078;BME280;60508;42.622;25.416;2022-12-20T10:36:34;98456.97;;;24.39;17.14
45078;BME280;60508;42.622;25.416;2022-12-20T10:39:05;98457.66;;;26.44;15.10
45078;BME280;60508;42.622;25.416;2022-12-20T10:46:48;98448.38;;;25.08;16.13
45078;BME280;60508;42.622;25.416;2022-12-20T10:54:42;98436.38;;;23.88;17.08
45078;BME280;60508;42.622;25.416;2022-12-20T10:57:19;98436.16;;;24.33;16.53
45078;BME280;60508;42.622;25.416;2022-12-20T10:59:55;98425.97;;;24.33;16.82
45078;BME280;60508;42.622;25.416;2022-12-20T11:07:38;98419.44;;;26.37;15.06
45078;BME280;60508;42.622;25.416;2022-12-20T11:10:22;98416.69;;;25.95;15.65
45078;BME280;60508;42.622;25.416;2022-12-20T11:12:53;98423.25;;;27.73;15.04
45078;BME280;60508;42.622;25.416;2022-12-20T11:15:23;98406.38;;;27.75;14.37
45078;BME280;60508;42.622;25.416;2022-12-20T11:17:55;98406.97;;;27.94;14.13
45078;BME280;60508;42.622;25.416;2022-12-20T11:20:27;98403.91;;;27.96;14.43
45078;BME280;60508;42.622;25.416;2022-12-20T11:25:35;98386.06;;;28.68;14.06
45078;BME280;60508;42.622;25.416;2022-12-20T11:42:07;98350.84;;;28.34;14.07
45078;BME280;60508;42.622;25.416;2022-12-20T11:50:01;98349.19;;;26.76;14.97
45078;BME280;60508;42.622;25.416;2022-12-20T11:52:57;98343.44;;;25.94;15.25
45078;BME280;60508;42.622;25.416;2022-12-20T11:55:27;98324.75;;;24.02;16.88
45078;BME280;60508;42.622;25.416;2022-12-20T11:58:03;98330.84;;;23.46;17.38
45078;BME280;60508;42.622;25.416;2022-12-20T12:00:32;98328.59;;;23.77;17.15
45078;BME280;60508;42.622;25.416;2022-12-20T12:03:31;98321.03;;;23.05;17.34
45078;BME280;60508;42.622;25.416;2022-12-20T12:06:03;98325.81;;;21.89;18.52
45078;BME280;60508;42.622;25.416;2022-12-20T12:11:13;98314.09;;;20.14;20.46
45078;BME280;60508;42.622;25.416;2022-12-20T12:13:41;98303.00;;;19.30;21.45
45078;BME280;60508;42.622;25.416;2022-12-20T12:16:33;98299.53;;;17.10;23.74
45078;BME280;60508;42.622;25.416;2022-12-20T12:19:00;98302.22;;;16.76;24.23
45078;BME280;60508;42.622;25.416;2022-12-20T12:21:37;98273.91;;;16.10;25.02
45078;BME280;60508;42.622;25.416;2022-12-20T12:26:44;98289.53;;;14.49;27.08
45078;BME280;60508;42.622;25.416;2022-12-20T12:29:12;98273.09;;;14.50;27.01
45078;BME280;60508;42.622;25.416;2022-12-20T12:40:21;98292.75;;;13.23;29.62
45078;BME280;60508;42.622;25.416;2022-12-20T12:45:49;98287.94;;;12.56;30.75
45078;BME280;60508;42.622;25.416;2022-12-20T12:51:00;98274.66;;;11.25;32.06
45078;BME280;60508;42.622;25.416;2022-12-20T12:53:47;98282.00;;;10.65;33.22
45078;BME280;60508;42.622;25.416;2022-12-20T13:11:52;98279.28;;;10.38;34.81
45078;BME280;60508;42.622;25.416;2022-12-20T13:19:40;98278.56;;;10.02;34.57
45078;BME280;60508;42.622;25.416;2022-12-20T13:40:55;98271.72;;;8.68;38.54
45078;BME280;60508;42.622;25.416;2022-12-20T13:45:54;98267.50;;;8.59;39.29
45078;BME280;60508;42.622;25.416;2022-12-20T13:48:26;98266.25;;;8.55;39.68
45078;BME280;60508;42.622;25.416;2022-12-20T13:50:55;98272.28;;;8.42;39.75
45078;BME280;60508;42.622;25.416;2022-12-20T13:53:24;98261.50;;;8.14;40.80
45078;BME280;60508;42.622;25.416;2022-12-20T13:55:52;98263.06;;;8.01;40.91
45078;BME280;60508;42.622;25.416;2022-12-20T13:58:20;98267.44;;;7.88;41.63
45078;BME280;60508;42.622;25.416;2022-12-20T14:00:48;98267.09;;;7.76;42.01
45078;BME280;60508;42.622;25.416;2022-12-20T14:03:24;98268.41;;;7.65;42.13
45078;BME280;60508;42.622;25.416;2022-12-20T14:05:55;98270.94;;;7.52;42.54
45078;BME280;60508;42.622;25.416;2022-12-20T14:08:25;98264.31;;;7.32;43.11
45078;BME280;60508;42.622;25.416;2022-12-20T14:10:52;98266.16;;;7.32;42.80
45078;BME280;60508;42.622;25.416;2022-12-20T14:13:24;98260.09;;;7.08;43.61
45078;BME280;60508;42.622;25.416;2022-12-20T14:15:52;98252.81;;;7.02;43.94
45078;BME280;60508;42.622;25.416;2022-12-20T14:18:21;98255.38;;;6.81;44.73
45078;BME280;60508;42.622;25.416;2022-12-20T14:20:51;98250.13;;;6.87;44.91
45078;BME280;60508;42.622;25.416;2022-12-20T14:23:22;98244.06;;;6.79;45.12
45078;BME280;60508;42.622;25.416;2022-12-20T14:25:56;98250.13;;;6.72;45.77
45078;BME280;60508;42.622;25.416;2022-12-20T14:28:37;98241.44;;;6.55;46.14
45078;BME280;60508;42.622;25.416;2022-12-20T14:31:06;98249.44;;;6.55;46.36
45078;BME280;60508;42.622;25.416;2022-12-20T14:33:37;98244.31;;;6.31;47.10
45078;BME280;60508;42.622;25.416;2022-12-20T14:36:18;98240.22;;;6.20;47.50
45078;BME280;60508;42.622;25.416;2022-12-20T14:38:47;98236.38;;;6.22;47.86
45078;BME280;60508;42.622;25.416;2022-12-20T14:41:31;98226.03;;;6.05;48.39
45078;BME280;60508;42.622;25.416;2022-12-20T14:44:19;98230.66;;;5.79;49.52
45078;BME280;60508;42.622;25.416;2022-12-20T14:46:53;98227.25;;;5.71;49.69
45078;BME280;60508;42.622;25.416;2022-12-20T14:49:31;98217.56;;;5.70;50.63
45078;BME280;60508;42.622;25.416;2022-12-20T14:54:45;98225.91;;;5.43;51.83
45078;BME280;60508;42.622;25.416;2022-12-20T15:13:14;98221.31;;;4.81;54.77
45078;BME280;60508;42.622;25.416;2022-12-20T15:15:41;98215.19;;;4.72;55.24
45078;BME280;60508;42.622;25.416;2022-12-20T15:18:25;98210.69;;;4.65;55.56
45078;BME280;60508;42.622;25.416;2022-12-20T15:20:59;98213.69;;;4.62;55.67
45078;BME280;60508;42.622;25.416;2022-12-20T15:23:26;98205.75;;;4.45;55.80
45078;BME280;60508;42.622;25.416;2022-12-20T15:25:52;98215.59;;;4.45;56.39
45078;BME280;60508;42.622;25.416;2022-12-20T15:28:20;98201.44;;;4.44;56.02
45078;BME280;60508;42.622;25.416;2022-12-20T15:30:48;98206.09;;;4.34;56.74
45078;BME280;60508;42.622;25.416;2022-12-20T15:33:16;98204.47;;;4.33;56.82
45078;BME280;60508;42.622;25.416;2022-12-20T15:35:43;98209.28;;;4.21;57.16
45078;BME280;60508;42.622;25.416;2022-12-20T15:38:13;98214.94;;;4.10;57.34